createdAt,value
2017-12-31T00:02:18.331Z,83.60
2017-12-31T00:04:44.445Z,84.20
2017-12-31T00:07:10.600Z,84.40
2017-12-31T00:09:36.749Z,84.00
2017-12-31T00:12:09.010Z,83.80
2017-12-31T00:14:37.106Z,83.80
2017-12-31T00:17:03.250Z,83.80
2017-12-31T00:19:29.372Z,83.70
2017-12-31T00:21:55.524Z,84.00
2017-12-31T00:24:22.505Z,85.70
2017-12-31T00:26:48.579Z,85.70
2017-12-31T00:29:15.439Z,86.50
2017-12-31T00:31:41.565Z,86.50
2017-12-31T00:34:14.270Z,86.10
2017-12-31T00:36:40.351Z,86.40
2017-12-31T00:39:06.443Z,87.40
2017-12-31T00:41:32.520Z,88.90
2017-12-31T00:43:58.629Z,89.60
2017-12-31T00:46:24.706Z,90.20
2017-12-31T00:48:50.798Z,90.10
2017-12-31T00:53:48.816Z,90.10
2017-12-31T00:56:14.954Z,90.10
2017-12-31T00:58:41.067Z,90.10
2017-12-31T01:01:07.163Z,90.20
2017-12-31T01:03:33.300Z,90.50
2017-12-31T01:05:59.380Z,90.50
2017-12-31T01:08:25.445Z,90.60
2017-12-31T01:10:54.460Z,90.70
2017-12-31T01:13:20.668Z,90.60
2017-12-31T01:15:46.744Z,90.60
2017-12-31T01:18:12.983Z,90.50
2017-12-31T01:20:39.121Z,90.50
2017-12-31T01:23:05.944Z,90.50
2017-12-31T01:25:32.030Z,90.40
2017-12-31T01:28:01.804Z,90.60
2017-12-31T01:30:27.888Z,90.60
2017-12-31T01:32:54.047Z,90.90
2017-12-31T01:35:20.658Z,91.10
2017-12-31T01:37:46.905Z,90.90
2017-12-31T01:40:13.046Z,91.10
2017-12-31T01:42:39.629Z,90.90
2017-12-31T01:45:09.220Z,90.90
2017-12-31T01:47:35.315Z,90.90
2017-12-31T01:50:01.418Z,90.90
2017-12-31T01:52:28.671Z,91.10
2017-12-31T01:54:54.866Z,91.10
2017-12-31T01:57:21.084Z,91.10
2017-12-31T01:59:47.188Z,91.50
2017-12-31T02:02:18.510Z,92.00
2017-12-31T02:04:44.867Z,91.90
2017-12-31T02:07:11.837Z,91.90
2017-12-31T02:09:37.972Z,92.00
2017-12-31T02:12:04.844Z,92.00
2017-12-31T02:14:31.288Z,92.00
2017-12-31T02:16:58.189Z,92.40
2017-12-31T02:19:24.311Z,92.40
2017-12-31T02:21:53.900Z,92.40
2017-12-31T02:24:19.999Z,92.30
2017-12-31T02:26:46.115Z,92.50
2017-12-31T02:29:12.234Z,92.40
2017-12-31T02:31:38.337Z,92.70
2017-12-31T02:34:05.165Z,92.00
2017-12-31T02:36:31.397Z,92.00
2017-12-31T02:41:29.811Z,92.00
2017-12-31T02:43:55.863Z,92.30
2017-12-31T02:46:21.956Z,92.30
2017-12-31T02:48:48.055Z,92.60
2017-12-31T02:51:14.868Z,92.00
2017-12-31T02:53:40.988Z,92.00
2017-12-31T02:56:07.166Z,91.90
2017-12-31T02:58:37.282Z,91.80
2017-12-31T03:01:03.359Z,91.90
2017-12-31T03:03:29.525Z,92.10
2017-12-31T03:05:55.879Z,91.90
2017-12-31T03:08:22.691Z,91.90
2017-12-31T03:10:48.751Z,91.90
2017-12-31T03:13:14.904Z,92.10
2017-12-31T03:15:41.053Z,92.50
2017-12-31T03:20:39.034Z,93.10
2017-12-31T03:23:05.180Z,93.00
2017-12-31T03:25:31.247Z,93.10
2017-12-31T03:27:57.691Z,92.90
2017-12-31T03:30:24.641Z,92.70
2017-12-31T03:32:50.821Z,92.70
2017-12-31T03:35:17.675Z,92.90
2017-12-31T03:37:49.773Z,92.90
2017-12-31T03:40:15.875Z,92.90
2017-12-31T03:42:42.016Z,92.90
2017-12-31T03:45:08.151Z,93.00
2017-12-31T03:47:34.284Z,93.10
2017-12-31T03:50:00.383Z,93.30
2017-12-31T03:52:26.496Z,93.30
2017-12-31T03:54:57.021Z,93.40
2017-12-31T03:57:23.111Z,93.40
2017-12-31T03:59:50.005Z,93.30
2017-12-31T04:02:16.136Z,93.30
2017-12-31T04:04:42.972Z,93.20
2017-12-31T04:07:09.088Z,93.20
2017-12-31T04:09:35.967Z,93.00
2017-12-31T04:12:08.120Z,93.00
2017-12-31T04:14:34.283Z,93.10
2017-12-31T04:17:00.354Z,93.00
2017-12-31T04:19:26.455Z,93.00
2017-12-31T04:21:53.292Z,93.00
2017-12-31T04:24:19.386Z,93.00
2017-12-31T04:26:46.275Z,93.30
2017-12-31T04:29:12.479Z,93.30
2017-12-31T04:31:41.983Z,93.10
2017-12-31T04:34:08.226Z,93.30
2017-12-31T04:36:34.359Z,93.30
2017-12-31T04:39:00.467Z,93.30
2017-12-31T04:41:27.320Z,93.60
2017-12-31T04:43:54.188Z,93.90
2017-12-31T04:46:20.289Z,93.80
2017-12-31T04:48:47.141Z,93.90
2017-12-31T04:51:16.939Z,93.90
2017-12-31T04:53:43.061Z,93.90
2017-12-31T04:56:09.212Z,93.80
2017-12-31T04:58:36.068Z,94.00
2017-12-31T05:01:02.182Z,94.00
2017-12-31T05:03:28.333Z,93.80
2017-12-31T05:05:55.188Z,94.00
2017-12-31T05:08:27.456Z,94.00
2017-12-31T05:10:53.544Z,94.00
2017-12-31T05:13:19.665Z,94.00
2017-12-31T05:15:45.771Z,94.00
2017-12-31T05:18:11.855Z,94.00
2017-12-31T05:20:38.699Z,94.10
2017-12-31T05:23:04.791Z,94.30
2017-12-31T05:25:35.635Z,94.20
2017-12-31T05:28:01.735Z,94.10
2017-12-31T05:30:28.567Z,93.80
2017-12-31T05:32:54.675Z,93.80
2017-12-31T05:35:21.535Z,93.90
2017-12-31T05:37:47.672Z,93.90
2017-12-31T05:40:13.891Z,93.90
2017-12-31T05:42:40.779Z,93.90
2017-12-31T05:45:10.666Z,93.90
2017-12-31T05:47:36.788Z,93.90
2017-12-31T05:50:02.900Z,93.80
2017-12-31T05:52:29.008Z,94.00
2017-12-31T05:54:55.944Z,94.00
2017-12-31T05:57:22.049Z,93.90
2017-12-31T05:59:48.247Z,93.90
2017-12-31T06:02:14.367Z,93.90
2017-12-31T06:04:45.607Z,93.90
2017-12-31T06:07:11.723Z,93.80
2017-12-31T06:09:37.877Z,93.80
2017-12-31T06:12:03.980Z,94.10
2017-12-31T06:14:30.079Z,93.50
2017-12-31T06:16:56.510Z,93.80
2017-12-31T06:19:22.623Z,93.50
2017-12-31T06:21:48.727Z,93.50
2017-12-31T06:24:20.136Z,93.30
2017-12-31T06:26:46.247Z,93.20
2017-12-31T06:29:12.381Z,93.20
2017-12-31T06:31:38.475Z,93.20
2017-12-31T06:34:04.557Z,93.60
2017-12-31T06:36:30.637Z,93.40
2017-12-31T06:38:56.699Z,93.20
2017-12-31T06:41:22.775Z,93.10
2017-12-31T06:43:52.442Z,93.20
2017-12-31T06:46:18.520Z,93.10
2017-12-31T06:48:44.615Z,93.10
2017-12-31T06:51:11.432Z,92.90
2017-12-31T06:53:37.512Z,92.90
2017-12-31T06:56:03.662Z,92.50
2017-12-31T06:58:29.732Z,92.60
2017-12-31T07:00:55.791Z,92.30
2017-12-31T07:03:28.661Z,92.20
2017-12-31T07:05:54.840Z,92.10
2017-12-31T07:08:20.951Z,92.30
2017-12-31T07:10:47.021Z,92.30
2017-12-31T07:13:13.146Z,91.90
2017-12-31T07:15:39.975Z,91.90
2017-12-31T07:18:06.057Z,91.90
2017-12-31T07:20:38.119Z,92.00
2017-12-31T07:23:04.208Z,92.10
2017-12-31T07:25:30.271Z,91.70
2017-12-31T07:27:56.752Z,91.80
2017-12-31T07:30:23.104Z,91.40
2017-12-31T07:32:49.253Z,91.20
2017-12-31T07:35:15.346Z,91.30
2017-12-31T07:37:41.473Z,91.20
2017-12-31T07:40:11.013Z,91.10
2017-12-31T07:42:37.108Z,90.80
2017-12-31T07:45:03.225Z,90.70
2017-12-31T07:47:29.376Z,90.60
2017-12-31T07:49:55.760Z,90.40
2017-12-31T07:52:21.863Z,90.60
2017-12-31T07:54:48.263Z,90.80
2017-12-31T07:57:14.400Z,90.30
2017-12-31T08:02:15.327Z,89.80
2017-12-31T08:04:41.456Z,89.80
2017-12-31T08:07:08.287Z,89.60
2017-12-31T08:09:34.470Z,89.60
2017-12-31T08:12:00.592Z,89.80
2017-12-31T08:14:30.532Z,90.30
2017-12-31T08:16:58.960Z,90.30
2017-12-31T08:19:25.889Z,90.20
2017-12-31T08:21:51.979Z,90.20
2017-12-31T08:24:18.873Z,90.40
2017-12-31T08:26:44.973Z,90.10
2017-12-31T08:29:11.128Z,90.30
2017-12-31T08:31:42.423Z,90.30
2017-12-31T08:34:08.536Z,89.80
2017-12-31T08:36:34.847Z,89.90
2017-12-31T08:39:01.149Z,89.60
2017-12-31T08:41:27.356Z,90.00
2017-12-31T08:43:54.200Z,90.10
2017-12-31T08:46:20.386Z,90.10
2017-12-31T08:48:47.026Z,89.60
2017-12-31T08:51:17.747Z,89.70
2017-12-31T08:53:44.264Z,89.70
2017-12-31T08:56:11.200Z,89.70
2017-12-31T08:58:37.422Z,89.60
2017-12-31T09:01:03.549Z,88.70
2017-12-31T09:03:29.673Z,89.40
2017-12-31T09:05:55.869Z,89.40
2017-12-31T09:08:22.029Z,88.70
2017-12-31T09:10:53.980Z,88.00
2017-12-31T09:13:20.084Z,87.80
2017-12-31T09:15:46.482Z,88.50
2017-12-31T09:18:12.600Z,88.40
2017-12-31T09:20:38.728Z,87.80
2017-12-31T09:23:04.885Z,88.00
2017-12-31T09:25:32.473Z,88.40
2017-12-31T09:27:59.356Z,87.60
2017-12-31T09:30:29.852Z,87.50
2017-12-31T09:32:56.055Z,87.90
2017-12-31T09:35:22.542Z,86.90
2017-12-31T09:37:49.400Z,86.50
2017-12-31T09:40:15.515Z,87.10
2017-12-31T09:42:41.632Z,86.60
2017-12-31T09:45:07.776Z,87.30
2017-12-31T09:47:33.998Z,86.60
2017-12-31T09:50:00.247Z,86.70
2017-12-31T09:52:26.354Z,86.60
2017-12-31T09:54:52.507Z,86.60
2017-12-31T09:57:19.400Z,87.20
2017-12-31T09:59:45.525Z,86.70
2017-12-31T10:02:11.632Z,86.70
2017-12-31T10:04:38.504Z,86.60
2017-12-31T10:07:08.922Z,86.90
2017-12-31T10:09:35.116Z,86.70
2017-12-31T10:12:01.996Z,86.70
2017-12-31T10:14:28.092Z,86.90
2017-12-31T10:16:54.220Z,86.00
2017-12-31T10:19:20.355Z,86.10
2017-12-31T10:21:46.543Z,85.40
2017-12-31T10:24:12.852Z,86.70
2017-12-31T10:26:43.268Z,86.00
2017-12-31T10:29:10.812Z,86.10
2017-12-31T10:31:37.076Z,85.50
2017-12-31T10:34:03.151Z,87.00
2017-12-31T10:36:29.212Z,85.50
2017-12-31T10:38:56.063Z,85.00
2017-12-31T10:41:22.135Z,85.00
2017-12-31T10:43:48.214Z,84.60
2017-12-31T10:46:18.407Z,84.30
2017-12-31T10:48:44.540Z,85.10
2017-12-31T10:51:11.364Z,84.50
2017-12-31T10:53:37.751Z,84.50
2017-12-31T10:56:03.900Z,83.60
2017-12-31T10:58:29.991Z,84.00
2017-12-31T11:01:00.935Z,83.40
2017-12-31T11:03:33.177Z,83.80
2017-12-31T11:05:59.796Z,82.60
2017-12-31T11:08:25.940Z,83.30
2017-12-31T11:10:52.041Z,83.80
2017-12-31T11:13:18.117Z,83.70
2017-12-31T11:15:44.987Z,84.10
2017-12-31T11:18:12.281Z,82.60
2017-12-31T11:20:39.094Z,82.50
2017-12-31T11:23:05.188Z,82.50
2017-12-31T11:25:31.994Z,81.60
2017-12-31T11:27:58.448Z,81.60
2017-12-31T11:30:25.279Z,81.80
2017-12-31T11:32:51.398Z,81.70
2017-12-31T11:35:17.526Z,81.10
2017-12-31T11:37:43.834Z,81.50
2017-12-31T11:40:10.810Z,82.10
2017-12-31T11:42:40.177Z,82.90
2017-12-31T11:45:06.336Z,81.30
2017-12-31T11:47:32.572Z,81.50
2017-12-31T11:49:58.655Z,82.40
2017-12-31T11:52:25.241Z,81.70
2017-12-31T11:54:51.405Z,81.30
2017-12-31T11:57:17.552Z,80.40
2017-12-31T11:59:44.475Z,80.20
2017-12-31T12:02:13.748Z,80.20
2017-12-31T12:04:39.868Z,79.30
2017-12-31T12:07:06.390Z,79.40
2017-12-31T12:09:33.252Z,76.90
2017-12-31T12:11:59.331Z,76.90
2017-12-31T12:14:25.446Z,76.40
2017-12-31T12:16:51.511Z,77.80
2017-12-31T12:19:17.580Z,77.00
2017-12-31T12:21:51.780Z,76.00
2017-12-31T12:24:17.859Z,75.90
2017-12-31T12:26:44.124Z,74.60
2017-12-31T12:29:10.961Z,74.40
2017-12-31T12:31:37.164Z,74.40
2017-12-31T12:34:04.031Z,75.30
2017-12-31T12:36:30.883Z,75.30
2017-12-31T12:39:00.178Z,75.30
2017-12-31T12:41:27.036Z,76.60
2017-12-31T12:43:53.103Z,76.60
2017-12-31T12:46:19.939Z,75.50
2017-12-31T12:48:46.008Z,75.50
2017-12-31T12:51:12.331Z,75.90
2017-12-31T12:53:38.616Z,75.30
2017-12-31T12:56:05.444Z,74.30
2017-12-31T12:58:34.704Z,74.30
2017-12-31T13:01:01.503Z,73.70
2017-12-31T13:03:27.589Z,73.70
2017-12-31T13:05:53.655Z,73.10
2017-12-31T13:08:19.715Z,74.10
2017-12-31T13:10:45.803Z,74.30
2017-12-31T13:13:11.979Z,73.80
2017-12-31T13:15:38.845Z,73.00
2017-12-31T13:18:08.037Z,73.00
2017-12-31T13:20:34.216Z,73.00
2017-12-31T13:23:00.285Z,73.90
2017-12-31T13:25:26.389Z,74.20
2017-12-31T13:27:52.476Z,73.60
2017-12-31T13:30:18.555Z,72.50
2017-12-31T13:32:44.680Z,73.20
2017-12-31T13:35:11.960Z,72.40
2017-12-31T13:37:40.469Z,72.40
2017-12-31T13:40:06.588Z,71.40
2017-12-31T13:42:32.889Z,71.00
2017-12-31T13:44:59.437Z,69.60
2017-12-31T13:47:25.545Z,70.00
2017-12-31T13:49:51.644Z,71.20
2017-12-31T13:52:17.761Z,71.20
2017-12-31T13:54:44.602Z,69.40
2017-12-31T13:57:16.903Z,69.40
2017-12-31T13:59:43.088Z,69.00
2017-12-31T14:02:09.199Z,68.60
2017-12-31T14:04:35.312Z,68.10
2017-12-31T14:07:01.476Z,68.00
2017-12-31T14:09:27.601Z,68.10
2017-12-31T14:11:53.733Z,68.00
2017-12-31T14:14:19.859Z,68.90
2017-12-31T14:16:53.016Z,68.70
2017-12-31T14:19:19.216Z,68.90
2017-12-31T14:21:45.347Z,67.80
2017-12-31T14:24:11.464Z,68.50
2017-12-31T14:26:37.592Z,67.10
2017-12-31T14:29:04.460Z,66.60
2017-12-31T14:31:30.600Z,66.60
2017-12-31T14:33:57.464Z,67.30
2017-12-31T14:36:27.414Z,67.80
2017-12-31T14:38:54.302Z,66.20
2017-12-31T14:41:20.432Z,66.20
2017-12-31T14:43:46.624Z,65.90
2017-12-31T14:46:12.729Z,65.20
2017-12-31T14:48:38.849Z,66.00
2017-12-31T14:51:05.007Z,65.70
2017-12-31T14:53:31.240Z,65.40
2017-12-31T14:56:01.893Z,64.20
2017-12-31T14:58:28.031Z,64.20
2017-12-31T15:00:54.924Z,63.90
2017-12-31T15:03:20.996Z,63.90
2017-12-31T15:05:47.139Z,64.50
2017-12-31T15:08:13.469Z,65.90
2017-12-31T15:10:39.603Z,65.40
2017-12-31T15:13:05.720Z,64.40
2017-12-31T15:15:38.522Z,64.90
2017-12-31T15:18:04.736Z,65.70
2017-12-31T15:20:31.574Z,65.00
2017-12-31T15:22:57.676Z,65.20
2017-12-31T15:25:23.799Z,65.30
2017-12-31T15:27:50.676Z,65.40
2017-12-31T15:30:21.929Z,65.20
2017-12-31T15:32:48.063Z,65.70
2017-12-31T15:35:14.192Z,64.80
2017-12-31T15:37:40.316Z,64.80
2017-12-31T15:40:06.471Z,65.40
2017-12-31T15:42:33.311Z,66.60
2017-12-31T15:45:00.198Z,65.10
2017-12-31T15:47:26.357Z,65.10
2017-12-31T15:49:55.625Z,65.30
2017-12-31T15:52:21.803Z,66.10
2017-12-31T15:54:47.943Z,67.60
2017-12-31T15:57:14.147Z,67.90
2017-12-31T15:59:41.073Z,70.10
2017-12-31T16:02:07.271Z,69.90
2017-12-31T16:04:33.440Z,70.50
2017-12-31T16:06:59.556Z,71.90
2017-12-31T16:09:27.495Z,73.60
2017-12-31T16:11:53.628Z,75.10
2017-12-31T16:14:19.736Z,78.10
2017-12-31T16:16:45.895Z,81.00
2017-12-31T16:19:12.005Z,82.90
2017-12-31T16:21:38.128Z,85.70
2017-12-31T16:24:04.267Z,84.40
2017-12-31T16:26:33.865Z,85.80
2017-12-31T16:28:59.979Z,86.30
2017-12-31T16:31:26.093Z,84.50
2017-12-31T16:33:52.901Z,87.50
2017-12-31T16:36:18.983Z,87.50
2017-12-31T16:38:45.060Z,86.40
2017-12-31T16:41:11.174Z,86.30
2017-12-31T16:43:40.199Z,87.60
2017-12-31T16:46:06.355Z,89.30
2017-12-31T16:48:32.432Z,88.50
2017-12-31T16:50:58.640Z,87.20
2017-12-31T16:53:24.732Z,88.20
2017-12-31T16:55:50.852Z,87.70
2017-12-31T16:58:16.974Z,87.60
2017-12-31T17:03:15.702Z,87.70
2017-12-31T17:05:41.794Z,87.60
2017-12-31T17:08:07.904Z,86.50
2017-12-31T17:10:34.046Z,87.00
2017-12-31T17:13:00.312Z,86.40
2017-12-31T17:15:26.408Z,88.20
2017-12-31T17:17:52.505Z,87.70
2017-12-31T17:20:20.960Z,87.90
2017-12-31T17:22:47.791Z,87.90
2017-12-31T17:25:13.891Z,87.90
2017-12-31T17:27:40.738Z,89.30
2017-12-31T17:30:06.862Z,89.30
2017-12-31T17:32:32.932Z,89.60
2017-12-31T17:34:59.045Z,90.20
2017-12-31T17:37:31.940Z,90.50
2017-12-31T17:39:58.057Z,90.30
2017-12-31T17:42:24.188Z,90.20
2017-12-31T17:44:51.167Z,89.80
2017-12-31T17:47:17.655Z,89.80
2017-12-31T17:49:44.507Z,90.20
2017-12-31T17:52:10.661Z,90.30
2017-12-31T17:54:39.897Z,90.30
2017-12-31T17:57:06.027Z,90.00
2017-12-31T17:59:32.147Z,90.10
2017-12-31T18:01:59.013Z,90.30
2017-12-31T18:04:25.155Z,90.50
2017-12-31T18:06:51.264Z,90.70
2017-12-31T18:09:17.462Z,90.60
2017-12-31T18:11:43.715Z,90.70
2017-12-31T18:14:15.788Z,90.70
2017-12-31T18:16:42.636Z,90.70
2017-12-31T18:19:08.783Z,90.60
2017-12-31T18:21:34.912Z,90.60
2017-12-31T18:24:01.032Z,90.90
2017-12-31T18:26:27.165Z,90.90
2017-12-31T18:28:53.347Z,90.80
2017-12-31T18:31:25.828Z,91.00
2017-12-31T18:33:52.132Z,91.20
2017-12-31T18:36:18.247Z,90.90
2017-12-31T18:38:44.336Z,90.70
2017-12-31T18:41:11.032Z,91.00
2017-12-31T18:43:37.912Z,91.20
2017-12-31T18:46:04.029Z,91.20
2017-12-31T18:48:30.129Z,91.00
2017-12-31T18:51:00.136Z,91.30
2017-12-31T18:53:26.255Z,91.40
2017-12-31T18:55:52.410Z,91.80
2017-12-31T18:58:18.479Z,91.30
2017-12-31T19:00:44.556Z,91.30
2017-12-31T19:03:11.076Z,91.00
2017-12-31T19:05:37.188Z,91.30
2017-12-31T19:08:03.285Z,91.70
2017-12-31T19:10:32.562Z,91.80
2017-12-31T19:12:59.424Z,91.50
2017-12-31T19:15:25.492Z,91.40
2017-12-31T19:17:51.837Z,91.40
2017-12-31T19:20:18.786Z,91.30
2017-12-31T19:22:45.609Z,91.10
2017-12-31T19:25:11.860Z,91.10
2017-12-31T19:27:38.008Z,91.00
2017-12-31T19:30:05.440Z,90.70
2017-12-31T19:32:32.259Z,90.60
2017-12-31T19:34:58.439Z,90.60
2017-12-31T19:37:24.544Z,90.50
2017-12-31T19:39:51.594Z,90.50
2017-12-31T19:42:18.503Z,90.40
2017-12-31T19:44:44.603Z,90.30
2017-12-31T19:47:10.711Z,90.00
2017-12-31T19:49:41.104Z,89.50
2017-12-31T19:52:07.673Z,89.30
2017-12-31T19:54:33.854Z,88.90
2017-12-31T19:57:00.148Z,89.40
2017-12-31T19:59:26.297Z,89.10
2017-12-31T20:01:53.139Z,88.20
2017-12-31T20:04:19.239Z,87.60
2017-12-31T20:06:52.232Z,87.80
2017-12-31T20:09:18.327Z,88.80
2017-12-31T20:11:45.811Z,90.50
2017-12-31T20:14:11.996Z,90.50
2017-12-31T20:16:38.143Z,90.60
2017-12-31T20:19:06.233Z,90.50
2017-12-31T20:21:32.388Z,90.90
2017-12-31T20:24:05.222Z,91.00
2017-12-31T20:26:32.067Z,90.60
2017-12-31T20:28:58.395Z,90.60
2017-12-31T20:31:24.689Z,90.70
2017-12-31T20:33:50.811Z,90.50
2017-12-31T20:36:17.655Z,90.90
2017-12-31T20:38:43.747Z,90.90
2017-12-31T20:41:13.807Z,90.60
2017-12-31T20:43:39.924Z,90.60
2017-12-31T20:46:06.040Z,90.50
2017-12-31T20:48:32.149Z,90.90
2017-12-31T20:50:58.261Z,90.70
2017-12-31T20:53:24.375Z,91.20
2017-12-31T20:55:50.506Z,90.90
2017-12-31T20:58:16.638Z,90.90
2017-12-31T21:00:44.512Z,91.30
2017-12-31T21:03:11.338Z,91.10
2017-12-31T21:05:37.507Z,91.30
2017-12-31T21:08:03.831Z,91.40
2017-12-31T21:10:29.971Z,91.00
2017-12-31T21:12:56.080Z,91.40
2017-12-31T21:15:22.483Z,91.30
2017-12-31T21:17:48.607Z,91.20
2017-12-31T21:20:18.788Z,91.20
2017-12-31T21:22:46.172Z,91.40
2017-12-31T21:25:12.513Z,91.00
2017-12-31T21:27:39.376Z,91.10
2017-12-31T21:30:05.656Z,91.20
2017-12-31T21:32:32.514Z,91.10
2017-12-31T21:34:58.670Z,91.10
2017-12-31T21:37:28.268Z,90.80
2017-12-31T21:39:54.339Z,90.80
2017-12-31T21:42:27.423Z,90.80
2017-12-31T21:44:54.820Z,90.50
2017-12-31T21:47:21.000Z,90.70
2017-12-31T21:49:47.073Z,90.50
2017-12-31T21:52:15.631Z,90.70
2017-12-31T21:54:41.699Z,90.70
2017-12-31T21:57:07.768Z,90.60
2017-12-31T21:59:33.840Z,90.50
2017-12-31T22:02:01.245Z,90.10
2017-12-31T22:04:28.072Z,90.40
2017-12-31T22:06:54.337Z,90.30
2017-12-31T22:09:24.233Z,90.00
2017-12-31T22:11:50.296Z,90.00
2017-12-31T22:14:18.305Z,90.00
2017-12-31T22:16:44.368Z,90.10
2017-12-31T22:19:10.439Z,90.00
2017-12-31T22:21:36.811Z,89.80
2017-12-31T22:24:02.907Z,90.10
2017-12-31T22:26:29.017Z,90.00
2017-12-31T22:28:58.897Z,89.70
2017-12-31T22:31:25.042Z,89.80
2017-12-31T22:33:51.159Z,90.00
2017-12-31T22:36:18.004Z,89.40
2017-12-31T22:38:44.301Z,89.40
2017-12-31T22:41:10.548Z,89.30
2017-12-31T22:43:36.767Z,89.70
2017-12-31T22:46:04.248Z,89.50
2017-12-31T22:48:30.380Z,89.60
2017-12-31T22:50:59.584Z,89.40
2017-12-31T22:53:25.931Z,89.40
2017-12-31T22:55:52.041Z,89.10
2017-12-31T22:58:18.166Z,89.80
2017-12-31T23:00:44.304Z,88.70
2017-12-31T23:03:10.419Z,88.70
2017-12-31T23:05:36.564Z,86.80
2017-12-31T23:08:02.684Z,86.70
2017-12-31T23:13:00.051Z,84.60
2017-12-31T23:15:26.721Z,83.80
2017-12-31T23:17:52.853Z,83.30
2017-12-31T23:20:20.294Z,82.90
2017-12-31T23:22:46.428Z,85.50
2017-12-31T23:25:13.280Z,84.80
2017-12-31T23:27:40.295Z,84.70
2017-12-31T23:30:10.678Z,82.40
2017-12-31T23:32:38.399Z,85.60
2017-12-31T23:35:04.530Z,83.60
2017-12-31T23:37:32.221Z,84.30
2017-12-31T23:39:59.032Z,85.30
2017-12-31T23:42:25.095Z,85.30
2017-12-31T23:44:51.183Z,85.10
2017-12-31T23:47:19.083Z,84.30
2017-12-31T23:49:45.189Z,85.20
2017-12-31T23:52:12.048Z,84.70
2017-12-31T23:54:38.856Z,86.40
2017-12-31T23:57:05.391Z,86.30
2017-12-31T23:59:31.511Z,86.70
